createdAt,value
2022-09-26T00:01:26.936Z,1.50
2022-09-26T00:03:56.776Z,2.57
2022-09-26T00:06:25.208Z,1.80
2022-09-26T00:08:54.144Z,2.00
2022-09-26T00:11:24.678Z,1.80
2022-09-26T00:13:53.769Z,1.63
2022-09-26T00:16:23.570Z,2.13
2022-09-26T00:18:51.809Z,2.10
2022-09-26T00:21:20.527Z,2.00
2022-09-26T00:23:48.571Z,1.97
2022-09-26T00:26:17.742Z,2.33
2022-09-26T00:28:45.718Z,1.50
2022-09-26T00:31:15.805Z,1.77
2022-09-26T00:33:45.404Z,2.13
2022-09-26T00:36:13.353Z,2.00
2022-09-26T00:38:41.291Z,2.33
2022-09-26T00:41:10.069Z,2.07
2022-09-26T00:43:39.415Z,2.17
2022-09-26T00:46:15.146Z,2.30
2022-09-26T00:48:45.548Z,1.87
2022-09-26T00:51:13.600Z,2.40
2022-09-26T00:53:44.989Z,2.40
2022-09-26T00:56:17.106Z,2.53
2022-09-26T00:58:47.330Z,2.20
2022-09-26T01:01:15.913Z,1.93
2022-09-26T01:03:45.663Z,1.93
2022-09-26T01:06:14.029Z,2.30
2022-09-26T01:08:45.244Z,1.90
2022-09-26T01:11:17.253Z,2.20
2022-09-26T01:13:46.383Z,2.10
2022-09-26T01:16:14.507Z,2.30
2022-09-26T01:18:42.627Z,2.73
2022-09-26T01:21:29.638Z,2.07
2022-09-26T01:24:22.510Z,2.20
2022-09-26T01:27:14.214Z,2.27
2022-09-26T01:30:10.873Z,2.00
2022-09-26T01:33:02.522Z,2.07
2022-09-26T01:36:04.217Z,2.07
2022-09-26T01:38:42.015Z,1.80
2022-09-26T01:41:25.639Z,2.20
2022-09-26T01:43:57.907Z,2.23
2022-09-26T01:46:32.156Z,2.37
2022-09-26T01:49:06.806Z,2.83
2022-09-26T01:51:38.601Z,2.03
2022-09-26T01:54:10.285Z,2.30
2022-09-26T01:56:40.538Z,2.20
2022-09-26T01:59:11.456Z,2.23
2022-09-26T02:01:44.327Z,2.63
2022-09-26T02:04:13.553Z,2.40
2022-09-26T02:06:44.729Z,1.57
2022-09-26T02:09:16.128Z,2.20
2022-09-26T02:11:45.749Z,2.13
2022-09-26T02:14:16.987Z,2.00
2022-09-26T02:16:49.024Z,2.07
2022-09-26T02:19:20.794Z,1.80
2022-09-26T02:21:48.889Z,2.27
2022-09-26T02:24:16.803Z,2.73
2022-09-26T02:26:45.177Z,2.07
2022-09-26T02:29:14.482Z,2.00
2022-09-26T02:31:49.251Z,2.03
2022-09-26T02:34:17.225Z,2.30
2022-09-26T02:36:46.330Z,2.10
2022-09-26T02:39:14.729Z,2.10
2022-09-26T02:41:49.796Z,1.90
2022-09-26T02:44:32.714Z,2.00
2022-09-26T02:47:14.407Z,1.93
2022-09-26T02:49:57.821Z,2.20
2022-09-26T02:52:36.466Z,2.00
2022-09-26T02:55:20.494Z,1.73
2022-09-26T02:57:54.350Z,1.77
2022-09-26T03:00:24.518Z,1.67
2022-09-26T03:02:58.261Z,1.97
2022-09-26T03:05:28.066Z,2.03
2022-09-26T03:07:58.966Z,1.90
2022-09-26T03:10:28.388Z,2.00
2022-09-26T03:12:57.760Z,2.10
2022-09-26T03:15:26.225Z,2.10
2022-09-26T03:17:56.256Z,2.00
2022-09-26T03:20:24.838Z,1.90
2022-09-26T03:22:53.034Z,2.23
2022-09-26T03:25:24.050Z,2.50
2022-09-26T03:27:52.383Z,2.23
2022-09-26T03:30:21.305Z,1.70
2022-09-26T03:32:49.350Z,2.20
2022-09-26T03:35:19.018Z,2.23
2022-09-26T03:37:47.906Z,2.17
2022-09-26T03:40:15.965Z,1.70
2022-09-26T03:42:44.053Z,2.50
2022-09-26T03:45:12.462Z,2.43
2022-09-26T03:47:41.957Z,2.23
2022-09-26T03:50:10.814Z,2.17
2022-09-26T03:52:40.138Z,2.20
2022-09-26T03:55:08.563Z,2.47
2022-09-26T03:57:36.470Z,2.00
2022-09-26T04:00:07.674Z,2.30
2022-09-26T04:02:35.951Z,1.90
2022-09-26T04:05:04.019Z,2.20
2022-09-26T04:07:32.152Z,2.17
2022-09-26T04:10:01.408Z,1.90
2022-09-26T04:12:29.295Z,2.20
2022-09-26T04:14:57.242Z,1.90
2022-09-26T04:17:25.295Z,2.23
2022-09-26T04:19:53.191Z,2.10
2022-09-26T04:22:21.121Z,2.37
2022-09-26T04:24:49.047Z,2.07
2022-09-26T04:27:18.702Z,1.80
2022-09-26T04:29:46.808Z,2.33
2022-09-26T04:32:14.958Z,1.90
2022-09-26T04:34:42.855Z,1.63
2022-09-26T04:37:12.116Z,1.67
2022-09-26T04:39:40.026Z,1.80
2022-09-26T04:42:07.914Z,2.10
2022-09-26T04:44:37.244Z,2.00
2022-09-26T04:47:05.342Z,1.60
2022-09-26T04:49:33.215Z,2.20
2022-09-26T04:52:01.195Z,4.10
2022-09-26T04:54:29.190Z,2.00
2022-09-26T04:56:57.047Z,2.00
2022-09-26T04:59:24.932Z,1.83
2022-09-26T05:01:54.936Z,2.10
2022-09-26T05:04:27.415Z,2.20
2022-09-26T05:06:57.844Z,1.83
2022-09-26T05:09:26.034Z,2.17
2022-09-26T05:11:54.011Z,1.87
2022-09-26T05:14:21.981Z,1.90
2022-09-26T05:16:49.991Z,1.80
2022-09-26T05:19:21.432Z,2.03
2022-09-26T05:21:49.319Z,2.10
2022-09-26T05:24:34.714Z,2.10
2022-09-26T05:27:02.923Z,2.20
2022-09-26T05:29:30.831Z,1.90
2022-09-26T05:31:59.878Z,2.13
2022-09-26T05:34:29.216Z,1.97
2022-09-26T05:36:57.200Z,2.33
2022-09-26T05:39:42.859Z,1.90
2022-09-26T05:42:11.000Z,2.03
2022-09-26T05:44:39.894Z,1.97
2022-09-26T05:47:08.647Z,1.90
2022-09-26T05:49:38.403Z,2.30
2022-09-26T05:52:06.549Z,2.07
2022-09-26T05:54:34.459Z,2.10
2022-09-26T05:57:02.318Z,2.00
2022-09-26T05:59:30.251Z,2.00
2022-09-26T06:01:58.651Z,2.27
2022-09-26T06:04:26.580Z,1.90
2022-09-26T06:06:55.854Z,2.03
2022-09-26T06:09:24.130Z,2.10
2022-09-26T06:11:52.049Z,1.90
2022-09-26T06:14:21.112Z,1.80
2022-09-26T06:16:49.089Z,1.73
2022-09-26T06:19:20.698Z,2.00
2022-09-26T06:21:50.846Z,1.67
2022-09-26T06:24:20.329Z,1.80
2022-09-26T06:26:48.211Z,2.03
2022-09-26T06:29:16.299Z,2.17
2022-09-26T06:31:44.837Z,3.80
2022-09-26T06:34:13.357Z,1.90
2022-09-26T06:36:41.267Z,2.20
2022-09-26T06:39:09.388Z,1.90
2022-09-26T06:41:38.786Z,1.90
2022-09-26T06:44:06.790Z,2.23
2022-09-26T06:46:35.428Z,2.17
2022-09-26T06:49:03.353Z,2.10
2022-09-26T06:51:31.939Z,2.00
2022-09-26T06:54:00.486Z,2.00
2022-09-26T06:56:28.464Z,2.20
2022-09-26T06:58:58.047Z,1.97
2022-09-26T07:01:26.102Z,2.23
2022-09-26T07:03:54.626Z,2.30
2022-09-26T07:06:22.597Z,1.80
2022-09-26T07:09:12.014Z,2.00
2022-09-26T07:12:10.074Z,1.90
2022-09-26T07:14:30.237Z,2.30
2022-09-26T07:16:58.186Z,2.60
2022-09-26T07:19:26.136Z,2.50
2022-09-26T07:21:55.020Z,2.40
2022-09-26T07:24:22.943Z,2.57
2022-09-26T07:26:51.268Z,2.10
2022-09-26T07:29:19.454Z,2.40
2022-09-26T07:31:48.809Z,2.50
2022-09-26T07:34:18.578Z,2.57
2022-09-26T07:36:47.619Z,2.43
2022-09-26T07:39:15.805Z,2.30
2022-09-26T07:41:46.026Z,2.87
2022-09-26T07:47:21.108Z,2.80
2022-09-26T07:50:06.619Z,2.73
2022-09-26T07:52:34.564Z,2.50
2022-09-26T07:55:02.473Z,3.10
2022-09-26T07:57:33.187Z,2.93
2022-09-26T08:00:01.173Z,2.80
2022-09-26T08:02:34.405Z,2.90
2022-09-26T08:05:04.024Z,3.53
2022-09-26T08:07:37.043Z,3.10
2022-09-26T08:10:07.067Z,3.43
2022-09-26T08:12:38.653Z,2.97
2022-09-26T08:15:07.918Z,2.63
2022-09-26T08:17:38.241Z,3.20
2022-09-26T08:20:07.251Z,3.30
2022-09-26T08:22:35.467Z,3.50
2022-09-26T08:25:04.259Z,3.73
2022-09-26T08:27:33.736Z,3.40
2022-09-26T08:30:03.261Z,3.10
2022-09-26T08:32:32.350Z,3.53
2022-09-26T08:35:01.711Z,3.37
2022-09-26T08:37:31.165Z,3.83
2022-09-26T08:40:00.829Z,3.80
2022-09-26T08:42:38.862Z,3.30
2022-09-26T08:45:47.489Z,4.17
2022-09-26T08:48:27.310Z,3.97
2022-09-26T08:51:01.489Z,3.37
2022-09-26T08:53:33.315Z,3.10
2022-09-26T08:56:02.437Z,3.63
2022-09-26T08:58:36.211Z,4.30
2022-09-26T09:01:05.981Z,3.50
2022-09-26T09:03:37.461Z,3.47
2022-09-26T09:06:08.878Z,3.83
2022-09-26T09:08:38.976Z,3.27
2022-09-26T09:11:13.968Z,3.13
2022-09-26T09:13:57.138Z,3.57
2022-09-26T09:16:44.774Z,3.43
2022-09-26T09:19:17.687Z,3.73
2022-09-26T09:22:00.461Z,3.50
2022-09-26T09:24:43.034Z,3.80
2022-09-26T09:30:17.879Z,3.77
2022-09-26T09:32:49.614Z,3.63
2022-09-26T09:35:20.635Z,3.37
2022-09-26T09:37:51.941Z,3.13
2022-09-26T09:40:26.693Z,3.30
2022-09-26T09:42:56.757Z,3.30
2022-09-26T09:45:29.757Z,2.80
2022-09-26T09:47:58.240Z,3.47
2022-09-26T09:50:37.361Z,3.13
2022-09-26T09:53:14.947Z,3.30
2022-09-26T09:55:48.991Z,3.27
2022-09-26T09:58:35.929Z,3.10
2022-09-26T10:01:09.854Z,3.80
2022-09-26T10:03:42.006Z,3.17
2022-09-26T10:06:44.525Z,3.10
2022-09-26T10:09:39.329Z,3.00
2022-09-26T10:11:54.214Z,3.20
2022-09-26T10:14:28.842Z,3.43
2022-09-26T10:17:18.629Z,3.33
2022-09-26T10:19:46.533Z,3.47
2022-09-26T10:22:24.188Z,3.57
2022-09-26T10:24:55.077Z,2.90
2022-09-26T10:27:32.142Z,3.27
2022-09-26T10:30:01.327Z,3.20
2022-09-26T10:32:30.315Z,3.47
2022-09-26T10:35:07.802Z,2.80
2022-09-26T10:37:38.094Z,3.03
2022-09-26T10:40:41.596Z,3.30
2022-09-26T10:43:31.889Z,3.50
2022-09-26T10:46:10.322Z,2.63
2022-09-26T10:48:48.246Z,2.97
2022-09-26T10:51:24.473Z,2.13
2022-09-26T10:53:53.759Z,3.03
2022-09-26T10:56:27.501Z,2.80
2022-09-26T10:58:58.394Z,3.33
2022-09-26T11:01:30.212Z,2.90
2022-09-26T11:04:01.629Z,3.77
2022-09-26T11:06:32.554Z,3.10
2022-09-26T11:09:03.386Z,2.63
2022-09-26T11:11:36.825Z,3.27
2022-09-26T11:14:07.758Z,3.17
2022-09-26T11:16:52.120Z,3.20
2022-09-26T11:19:44.638Z,2.60
2022-09-26T11:22:16.406Z,3.70
2022-09-26T11:24:48.578Z,3.00
2022-09-26T11:27:23.849Z,3.10
2022-09-26T11:29:55.618Z,3.30
2022-09-26T11:32:29.258Z,3.07
2022-09-26T11:35:02.323Z,2.80
2022-09-26T11:37:42.240Z,2.87
2022-09-26T11:40:29.922Z,3.33
2022-09-26T11:43:11.117Z,3.70
2022-09-26T11:45:52.069Z,3.20
2022-09-26T11:48:39.261Z,2.70
2022-09-26T11:51:15.826Z,3.00
2022-09-26T11:53:56.386Z,3.23
2022-09-26T11:56:44.596Z,3.40
2022-09-26T11:59:29.702Z,3.53
2022-09-26T12:02:15.748Z,2.90
2022-09-26T12:04:54.345Z,3.20
2022-09-26T12:07:26.226Z,3.17
2022-09-26T12:10:07.365Z,3.33
2022-09-26T12:12:41.893Z,2.93
2022-09-26T12:15:20.357Z,3.30
2022-09-26T12:17:56.850Z,3.23
2022-09-26T12:20:31.695Z,3.17
2022-09-26T12:23:03.934Z,3.23
2022-09-26T12:25:37.478Z,2.73
2022-09-26T12:28:17.331Z,2.90
2022-09-26T12:30:54.018Z,2.77
2022-09-26T12:33:52.946Z,2.90
2022-09-26T12:36:28.150Z,3.60
2022-09-26T12:39:06.057Z,2.70
2022-09-26T12:41:45.842Z,2.60
2022-09-26T12:44:43.362Z,2.40
2022-09-26T12:47:22.109Z,2.27
2022-09-26T12:50:08.131Z,2.40
2022-09-26T12:53:02.414Z,2.63
2022-09-26T12:55:36.040Z,2.63
2022-09-26T12:58:12.494Z,2.60
2022-09-26T13:00:43.964Z,2.00
2022-09-26T13:03:35.542Z,2.33
2022-09-26T13:06:29.540Z,2.83
2022-09-26T13:09:05.027Z,2.47
2022-09-26T13:11:40.345Z,3.00
2022-09-26T13:14:36.259Z,2.33
2022-09-26T13:17:10.231Z,2.43
2022-09-26T13:19:42.298Z,2.43
2022-09-26T13:22:29.469Z,2.70
2022-09-26T13:25:01.137Z,2.03
2022-09-26T13:27:34.481Z,2.13
2022-09-26T13:30:05.085Z,2.10
2022-09-26T13:32:36.904Z,2.90
2022-09-26T13:35:13.902Z,2.23
2022-09-26T13:37:48.022Z,2.40
2022-09-26T13:40:29.838Z,2.70
2022-09-26T13:43:09.569Z,2.20
2022-09-26T13:45:49.299Z,2.60
2022-09-26T13:48:22.216Z,2.30
2022-09-26T13:50:56.189Z,2.43
2022-09-26T13:53:28.881Z,2.33
2022-09-26T13:56:48.447Z,2.63
2022-09-26T13:59:34.528Z,2.20
2022-09-26T14:02:19.510Z,2.37
2022-09-26T14:04:48.080Z,2.63
2022-09-26T14:07:50.590Z,2.40
2022-09-26T14:10:35.560Z,1.97
2022-09-26T14:13:19.112Z,2.60
2022-09-26T14:16:01.373Z,2.47
2022-09-26T14:18:47.185Z,2.60
2022-09-26T14:21:23.812Z,2.13
2022-09-26T14:24:42.808Z,2.70
2022-09-26T14:27:29.342Z,2.13
2022-09-26T14:30:01.717Z,1.90
2022-09-26T14:32:32.911Z,1.97
2022-09-26T14:35:01.871Z,2.20
2022-09-26T14:37:34.720Z,2.10
2022-09-26T14:40:19.408Z,2.00
2022-09-26T14:42:54.716Z,1.97
2022-09-26T14:45:26.486Z,2.30
2022-09-26T14:48:01.411Z,1.87
2022-09-26T14:50:35.608Z,1.60
2022-09-26T14:53:11.465Z,2.00
2022-09-26T14:55:54.702Z,1.87
2022-09-26T14:58:32.066Z,1.80
2022-09-26T15:01:03.525Z,1.60
2022-09-26T15:03:31.898Z,1.87
2022-09-26T15:06:00.515Z,1.97
2022-09-26T15:08:30.226Z,2.03
2022-09-26T15:11:00.774Z,1.73
2022-09-26T15:13:34.280Z,1.83
2022-09-26T15:16:22.908Z,1.50
2022-09-26T15:18:53.450Z,1.60
2022-09-26T15:21:27.562Z,1.70
2022-09-26T15:23:56.766Z,1.70
2022-09-26T15:26:28.131Z,1.80
2022-09-26T15:28:57.689Z,1.67
2022-09-26T15:31:30.593Z,1.67
2022-09-26T15:34:04.380Z,2.50
2022-09-26T15:36:34.258Z,1.50
2022-09-26T15:39:03.228Z,1.70
2022-09-26T15:41:49.985Z,2.00
2022-09-26T15:44:23.765Z,2.40
2022-09-26T15:46:52.397Z,1.90
2022-09-26T15:49:22.253Z,2.40
2022-09-26T15:51:53.492Z,2.00
2022-09-26T15:54:26.307Z,1.93
2022-09-26T15:56:58.823Z,2.00
2022-09-26T15:59:31.607Z,2.07
2022-09-26T16:02:01.297Z,1.60
2022-09-26T16:04:30.252Z,2.20
2022-09-26T16:06:59.939Z,2.23
2022-09-26T16:09:33.047Z,2.13
2022-09-26T16:12:04.721Z,2.30
2022-09-26T16:14:40.365Z,1.77
2022-09-26T16:17:30.110Z,1.97
2022-09-26T16:19:59.638Z,2.37
2022-09-26T16:22:40.616Z,1.83
2022-09-26T16:25:29.952Z,2.10
2022-09-26T16:28:32.217Z,1.80
2022-09-26T16:31:17.822Z,1.70
2022-09-26T16:33:52.553Z,1.90
2022-09-26T16:36:24.895Z,2.23
2022-09-26T16:38:54.517Z,2.50
2022-09-26T16:41:49.006Z,2.00
2022-09-26T16:44:27.389Z,1.53
2022-09-26T16:47:02.701Z,2.70
2022-09-26T16:49:34.555Z,1.70
2022-09-26T16:52:21.486Z,2.17
2022-09-26T16:54:49.858Z,2.40
2022-09-26T16:57:21.586Z,2.07
2022-09-26T16:59:49.752Z,2.27
2022-09-26T17:02:18.341Z,2.07
2022-09-26T17:04:47.410Z,2.77
2022-09-26T17:07:16.573Z,2.00
2022-09-26T17:09:44.564Z,2.10
2022-09-26T17:12:18.662Z,2.20
2022-09-26T17:14:49.227Z,1.77
2022-09-26T17:17:22.275Z,1.70
2022-09-26T17:19:58.234Z,2.13
2022-09-26T17:22:27.249Z,2.20
2022-09-26T17:24:55.782Z,2.10
2022-09-26T17:27:27.072Z,1.93
2022-09-26T17:30:00.386Z,2.13
2022-09-26T17:32:30.759Z,2.00
2022-09-26T17:34:59.934Z,2.00
2022-09-26T17:37:28.514Z,1.93
2022-09-26T17:39:56.683Z,2.27
2022-09-26T17:42:25.279Z,2.43
2022-09-26T17:44:54.003Z,2.20
2022-09-26T17:47:22.718Z,1.93
2022-09-26T17:49:56.173Z,2.40
2022-09-26T17:52:26.971Z,2.20
2022-09-26T17:54:57.470Z,2.27
2022-09-26T17:57:28.014Z,2.37
2022-09-26T17:59:56.070Z,2.80
2022-09-26T18:02:30.446Z,2.30
2022-09-26T18:05:04.546Z,2.20
2022-09-26T18:07:36.367Z,2.40
2022-09-26T18:10:07.327Z,2.03
2022-09-26T18:12:35.697Z,2.40
2022-09-26T18:15:04.586Z,2.63
2022-09-26T18:17:32.766Z,2.87
2022-09-26T18:20:02.666Z,3.17
2022-09-26T18:22:32.835Z,2.77
2022-09-26T18:25:05.509Z,2.30
2022-09-26T18:27:36.866Z,2.40
2022-09-26T18:30:07.378Z,2.73
2022-09-26T18:32:39.112Z,2.60
2022-09-26T18:35:14.813Z,2.30
2022-09-26T18:37:43.649Z,2.70
2022-09-26T18:40:15.230Z,2.93
2022-09-26T18:42:44.496Z,2.33
2022-09-26T18:45:15.163Z,2.90
2022-09-26T18:47:45.348Z,2.67
2022-09-26T18:50:23.575Z,2.90
2022-09-26T18:52:52.157Z,2.27
2022-09-26T18:55:38.893Z,2.80
2022-09-26T18:58:24.069Z,2.30
2022-09-26T19:00:54.654Z,2.67
2022-09-26T19:03:23.363Z,2.70
2022-09-26T19:05:54.840Z,2.90
2022-09-26T19:08:33.548Z,3.10
2022-09-26T19:11:03.995Z,2.70
2022-09-26T19:13:32.543Z,2.97
2022-09-26T19:16:00.618Z,2.80
2022-09-26T19:18:28.588Z,2.70
2022-09-26T19:20:57.982Z,3.03
2022-09-26T19:23:27.614Z,3.43
2022-09-26T19:25:55.662Z,3.10
2022-09-26T19:28:26.311Z,2.60
2022-09-26T19:30:54.357Z,2.80
2022-09-26T19:33:22.677Z,2.93
2022-09-26T19:35:50.607Z,3.07
2022-09-26T19:38:24.087Z,2.87
2022-09-26T19:40:53.778Z,2.70
2022-09-26T19:43:22.690Z,2.70
2022-09-26T19:45:53.730Z,2.77
2022-09-26T19:48:23.846Z,2.70
2022-09-26T19:50:52.631Z,2.73
2022-09-26T19:53:23.745Z,2.93
2022-09-26T19:55:51.787Z,2.80
2022-09-26T19:58:20.791Z,2.80
2022-09-26T20:00:51.269Z,2.83
2022-09-26T20:03:20.905Z,2.50
2022-09-26T20:05:50.060Z,3.00
2022-09-26T20:08:22.185Z,2.30
2022-09-26T20:10:51.925Z,2.70
2022-09-26T20:13:20.322Z,2.40
2022-09-26T20:15:48.901Z,2.87
2022-09-26T20:18:20.704Z,2.90
2022-09-26T20:20:51.830Z,2.23
2022-09-26T20:23:22.682Z,2.60
2022-09-26T20:25:53.267Z,2.50
2022-09-26T20:28:21.246Z,2.70
2022-09-26T20:30:56.767Z,2.43
2022-09-26T20:33:26.308Z,2.30
2022-09-26T20:36:00.261Z,2.20
2022-09-26T20:38:33.718Z,2.37
2022-09-26T20:41:12.047Z,2.80
2022-09-26T20:43:41.039Z,2.30
2022-09-26T20:46:10.256Z,2.00
2022-09-26T20:48:38.573Z,2.60
2022-09-26T20:51:08.547Z,2.50
2022-09-26T20:53:36.758Z,2.00
2022-09-26T20:56:10.048Z,2.47
2022-09-26T20:58:37.981Z,2.30
2022-09-26T21:01:06.052Z,2.47
2022-09-26T21:03:34.091Z,2.20
2022-09-26T21:06:02.026Z,2.53
2022-09-26T21:08:31.370Z,2.60
2022-09-26T21:10:59.748Z,1.80
2022-09-26T21:13:29.124Z,2.70
2022-09-26T21:15:57.058Z,3.03
2022-09-26T21:18:26.605Z,2.40
2022-09-26T21:20:55.332Z,2.83
2022-09-26T21:23:24.189Z,2.93
2022-09-26T21:25:52.120Z,2.70
2022-09-26T21:28:26.308Z,2.87
2022-09-26T21:30:56.401Z,2.50
2022-09-26T21:33:24.554Z,3.17
2022-09-26T21:35:52.842Z,2.90
2022-09-26T21:38:21.917Z,2.67
2022-09-26T21:40:52.830Z,2.70
2022-09-26T21:43:22.893Z,2.90
2022-09-26T21:45:50.894Z,2.80
2022-09-26T21:48:20.242Z,2.60
2022-09-26T21:50:57.386Z,3.00
2022-09-26T21:53:28.689Z,2.57
2022-09-26T21:56:02.564Z,2.60
2022-09-26T21:58:38.086Z,2.60
2022-09-26T22:01:06.358Z,2.70
2022-09-26T22:03:35.904Z,2.40
2022-09-26T22:06:07.384Z,3.10
2022-09-26T22:08:35.742Z,2.70
2022-09-26T22:11:03.845Z,2.63
2022-09-26T22:13:33.140Z,2.60
2022-09-26T22:16:06.225Z,2.23
2022-09-26T22:18:36.746Z,2.50
2022-09-26T22:21:05.095Z,2.33
2022-09-26T22:23:33.499Z,2.37
2022-09-26T22:26:01.995Z,2.93
2022-09-26T22:28:30.321Z,2.27
2022-09-26T22:31:01.819Z,2.53
2022-09-26T22:33:30.226Z,2.50
2022-09-26T22:35:59.684Z,2.37
2022-09-26T22:38:28.056Z,2.27
2022-09-26T22:40:57.155Z,2.10
2022-09-26T22:43:25.481Z,1.90
2022-09-26T22:45:54.289Z,2.30
2022-09-26T22:48:22.270Z,2.23
2022-09-26T22:50:50.246Z,2.17
2022-09-26T22:53:19.604Z,2.13
2022-09-26T22:55:54.755Z,2.10
2022-09-26T22:58:23.406Z,2.10
2022-09-26T23:00:51.372Z,2.40
2022-09-26T23:03:19.663Z,1.60
2022-09-26T23:05:48.481Z,1.90
2022-09-26T23:08:16.437Z,1.93
2022-09-26T23:10:51.308Z,1.77
2022-09-26T23:13:19.378Z,1.90
2022-09-26T23:15:47.555Z,2.10
2022-09-26T23:18:15.942Z,2.10
2022-09-26T23:20:44.862Z,1.80
2022-09-26T23:23:14.336Z,2.27
2022-09-26T23:25:46.935Z,2.03
2022-09-26T23:28:16.753Z,2.10
2022-09-26T23:30:45.422Z,1.90
2022-09-26T23:33:13.370Z,2.20
2022-09-26T23:35:41.367Z,2.00
2022-09-26T23:38:09.429Z,1.90
2022-09-26T23:40:38.645Z,2.27
2022-09-26T23:43:06.622Z,2.00
2022-09-26T23:45:36.122Z,1.90
2022-09-26T23:48:04.205Z,2.20
2022-09-26T23:50:32.188Z,1.97
2022-09-26T23:53:04.389Z,2.33
2022-09-26T23:55:33.910Z,2.27
2022-09-26T23:58:01.847Z,1.40
